Time,TemperatureF,DewpointF,PressureIn,WindDirection,WindDirectionDegrees,WindSpeedMPH,WindSpeedGustMPH,Humidity,HourlyPrecipIn,Conditions,Clouds,dailyrainin,SoftwareType,DateUTC
2013-02-15 00:17:00,29.3,29.1,29.79,ESE,112,1.7,-999.0,99,-99.99,,,0.00,Acu-Link.com,2013-02-15 09:17:00,
2013-02-15 00:32:00,29.1,28.9,29.80,ESE,112,2.2,-999.0,99,-99.99,,,0.00,Acu-Link.com,2013-02-15 09:32:00,
2013-02-15 00:47:00,28.6,28.4,29.80,NNE,22,3.2,-999.0,99,-99.99,,,0.00,Acu-Link.com,2013-02-15 09:47:00,
2013-02-15 01:02:00,28.4,28.2,29.81,NNW,337,3.7,-999.0,99,-99.99,,,0.00,Acu-Link.com,2013-02-15 10:02:00,
2013-02-15 01:18:00,28.2,28.0,29.81,NNW,337,4.2,-999.0,99,-99.99,,,0.00,Acu-Link.com,2013-02-15 10:18:00,
2013-02-15 01:33:00,28.0,27.8,29.81,NNW,337,4.2,-999.0,99,-99.99,,,0.00,Acu-Link.com,2013-02-15 10:33:00,
2013-02-15 01:48:00,28.0,27.8,29.83,North,0,2.7,-999.0,99,-99.99,,,0.00,Acu-Link.com,2013-02-15 10:48:00,
2013-02-15 02:03:00,28.0,27.8,29.83,NNW,337,4.2,-999.0,99,-99.99,,,0.00,Acu-Link.com,2013-02-15 11:03:00,
2013-02-15 02:19:00,28.0,27.8,29.83,NNW,337,3.7,-999.0,99,-99.99,,,0.00,Acu-Link.com,2013-02-15 11:19:00,
2013-02-15 02:34:00,28.0,27.8,29.84,NNW,337,2.7,-999.0,99,-99.99,,,0.00,Acu-Link.com,2013-02-15 11:34:00,
2013-02-15 02:49:00,28.0,27.8,29.84,North,0,4.2,-999.0,99,-99.99,,,0.00,Acu-Link.com,2013-02-15 11:49:00,
2013-02-15 03:04:00,27.9,27.7,29.85,NNE,22,3.7,-999.0,99,-99.99,,,0.00,Acu-Link.com,2013-02-15 12:04:00,
2013-02-15 03:19:00,27.7,27.5,29.85,NNW,337,4.7,-999.0,99,-99.99,,,0.00,Acu-Link.com,2013-02-15 12:19:00,
2013-02-15 03:35:00,27.3,27.1,29.85,NW,315,4.7,-999.0,99,-99.99,,,0.00,Acu-Link.com,2013-02-15 12:35:00,
2013-02-15 03:50:00,27.1,26.9,29.85,NNW,337,4.7,-999.0,99,-99.99,,,0.00,Acu-Link.com,2013-02-15 12:50:00,
2013-02-15 04:05:00,27.0,26.8,29.86,NNW,337,4.7,-999.0,99,-99.99,,,0.00,Acu-Link.com,2013-02-15 13:05:00,
2013-02-15 04:20:00,26.6,26.4,29.86,NNW,337,5.3,-999.0,99,-99.99,,,0.00,Acu-Link.com,2013-02-15 13:20:00,
2013-02-15 04:36:00,26.6,26.4,29.86,NNW,337,5.8,-999.0,99,-99.99,,,0.00,Acu-Link.com,2013-02-15 13:36:00,
2013-02-15 04:51:00,26.4,25.9,29.86,NNE,22,5.3,-999.0,98,-99.99,,,0.00,Acu-Link.com,2013-02-15 13:51:00,
2013-02-15 05:06:00,26.2,25.7,29.86,North,0,4.7,-999.0,98,-99.99,,,0.00,Acu-Link.com,2013-02-15 14:06:00,
2013-02-15 05:21:00,26.2,25.7,29.87,NNE,22,5.8,-999.0,98,-99.99,,,0.00,Acu-Link.com,2013-02-15 14:21:00,
2013-02-15 05:36:00,26.1,25.6,29.88,NNW,337,5.3,-999.0,98,-99.99,,,0.00,Acu-Link.com,2013-02-15 14:36:00,
2013-02-15 05:52:00,26.1,25.6,29.88,North,0,4.7,-999.0,98,-99.99,,,0.00,Acu-Link.com,2013-02-15 14:52:00,
2013-02-15 06:07:00,26.1,25.6,29.88,NNW,337,5.3,-999.0,98,-99.99,,,0.00,Acu-Link.com,2013-02-15 15:07:00,
2013-02-15 06:22:00,26.1,25.6,29.88,NNW,337,6.8,-999.0,98,-99.99,,,0.00,Acu-Link.com,2013-02-15 15:22:00,
2013-02-15 06:38:00,25.9,25.4,29.88,NNE,22,6.3,-999.0,98,-99.99,,,0.00,Acu-Link.com,2013-02-15 15:38:00,
2013-02-15 06:53:00,25.9,25.4,29.88,North,0,5.8,-999.0,98,-99.99,,,0.00,Acu-Link.com,2013-02-15 15:53:00,
2013-02-15 07:08:00,25.7,25.0,29.88,NW,315,7.3,-999.0,97,-99.99,,,0.00,Acu-Link.com,2013-02-15 16:08:00,
2013-02-15 07:23:00,25.7,25.0,29.89,NNW,337,6.8,-999.0,97,-99.99,,,0.00,Acu-Link.com,2013-02-15 16:23:00,
2013-02-15 07:38:00,25.5,24.8,29.90,NNE,22,6.8,-999.0,97,-99.99,,,0.00,Acu-Link.com,2013-02-15 16:38:00,
2013-02-15 07:54:00,25.5,24.8,29.90,North,0,6.3,-999.0,97,-99.99,,,0.00,Acu-Link.com,2013-02-15 16:54:00,
2013-02-15 08:09:00,25.3,24.6,29.89,NNW,337,5.3,-999.0,97,-99.99,,,0.00,Acu-Link.com,2013-02-15 17:09:00,
2013-02-15 08:24:00,25.3,24.6,29.90,North,0,7.3,-999.0,97,-99.99,,,0.00,Acu-Link.com,2013-02-15 17:24:00,
2013-02-15 08:39:00,25.3,24.6,29.91,NNE,22,6.3,-999.0,97,-99.99,,,0.00,Acu-Link.com,2013-02-15 17:39:00,
2013-02-15 08:54:00,25.2,24.5,29.92,North,0,7.3,-999.0,97,-99.99,,,0.00,Acu-Link.com,2013-02-15 17:54:00,
2013-02-15 09:10:00,25.0,24.5,29.92,NNE,22,6.3,-999.0,98,-99.99,,,0.00,Acu-Link.com,2013-02-15 18:10:00,
2013-02-15 09:25:00,25.0,24.5,29.93,NNW,337,7.8,-999.0,98,-99.99,,,0.00,Acu-Link.com,2013-02-15 18:25:00,
2013-02-15 09:40:00,25.0,24.5,29.92,NNE,22,5.8,-999.0,98,-99.99,,,0.00,Acu-Link.com,2013-02-15 18:40:00,
2013-02-15 09:55:00,25.0,24.5,29.93,NNW,337,7.3,-999.0,98,-99.99,,,0.00,Acu-Link.com,2013-02-15 18:55:00,
2013-02-15 10:11:00,25.0,24.5,29.93,North,0,6.8,-999.0,98,-99.99,,,0.00,Acu-Link.com,2013-02-15 19:11:00,
2013-02-15 10:26:00,25.3,24.6,29.94,NNW,337,6.3,-999.0,97,-99.99,,,0.00,Acu-Link.com,2013-02-15 19:26:00,
2013-02-15 10:41:00,25.5,24.8,29.95,North,0,6.3,-999.0,97,-99.99,,,0.00,Acu-Link.com,2013-02-15 19:41:00,
2013-02-15 10:56:00,26.1,25.4,29.96,NNE,22,4.7,-999.0,97,-99.99,,,0.00,Acu-Link.com,2013-02-15 19:56:00,
2013-02-15 11:11:00,26.1,25.4,29.97,NNE,22,4.2,-999.0,97,-99.99,,,0.00,Acu-Link.com,2013-02-15 20:11:00,
2013-02-15 11:27:00,26.4,25.7,29.97,NNE,22,3.7,-999.0,97,-99.99,,,0.00,Acu-Link.com,2013-02-15 20:27:00,
2013-02-15 11:42:00,26.8,26.3,29.97,ENE,67,2.7,-999.0,98,-99.99,,,0.00,Acu-Link.com,2013-02-15 20:42:00,
2013-02-15 11:57:00,27.5,26.8,29.98,East,90,0.0,-999.0,97,-99.99,,,0.00,Acu-Link.com,2013-02-15 20:57:00,
2013-02-15 12:12:00,28.0,27.3,29.98,East,90,0.0,-999.0,97,-99.99,,,0.00,Acu-Link.com,2013-02-15 21:12:00,
2013-02-15 12:27:00,29.8,28.5,29.99,ESE,112,0.0,-999.0,95,-99.99,,,0.00,Acu-Link.com,2013-02-15 21:27:00,
2013-02-15 12:43:00,31.1,29.8,29.99,ESE,112,0.0,-999.0,95,-99.99,,,0.00,Acu-Link.com,2013-02-15 21:43:00,
2013-02-15 12:58:00,30.4,29.1,29.99,South,180,0.0,-999.0,95,-99.99,,,0.00,Acu-Link.com,2013-02-15 21:58:00,
2013-02-15 13:13:00,31.6,30.3,30.00,South,180,0.0,-999.0,95,-99.99,,,0.00,Acu-Link.com,2013-02-15 22:13:00,
2013-02-15 13:28:00,30.4,29.1,30.00,SSW,202,0.0,-999.0,95,-99.99,,,0.00,Acu-Link.com,2013-02-15 22:28:00,
2013-02-15 13:43:00,30.6,29.1,30.01,West,270,0.0,-999.0,94,-99.99,,,0.00,Acu-Link.com,2013-02-15 22:43:00,
2013-02-15 13:59:00,29.5,28.2,30.01,SSW,202,0.0,-999.0,95,-99.99,,,0.00,Acu-Link.com,2013-02-15 22:59:00,
2013-02-15 14:14:00,30.4,28.9,30.02,WSW,247,0.0,-999.0,94,-99.99,,,0.00,Acu-Link.com,2013-02-15 23:14:00,
2013-02-15 14:29:00,30.0,28.5,30.01,SSW,202,0.0,-999.0,94,-99.99,,,0.00,Acu-Link.com,2013-02-15 23:29:00,
2013-02-15 14:44:00,29.5,28.0,30.03,South,180,0.0,-999.0,94,-99.99,,,0.00,Acu-Link.com,2013-02-15 23:44:00,
2013-02-15 14:59:00,29.5,27.5,30.02,South,180,0.0,-999.0,92,-99.99,,,0.00,Acu-Link.com,2013-02-15 23:59:00,
2013-02-15 15:15:00,29.7,27.9,30.02,West,270,0.0,-999.0,93,-99.99,,,0.00,Acu-Link.com,2013-02-16 00:15:00,
2013-02-15 15:30:00,29.3,27.5,30.04,SSW,202,0.0,-999.0,93,-99.99,,,0.00,Acu-Link.com,2013-02-16 00:30:00,
2013-02-15 15:45:00,28.9,27.1,30.04,SSW,202,0.0,-999.0,93,-99.99,,,0.00,Acu-Link.com,2013-02-16 00:45:00,
2013-02-15 16:00:00,28.8,26.8,30.04,SSE,157,0.0,-999.0,92,-99.99,,,0.00,Acu-Link.com,2013-02-16 01:00:00,
2013-02-15 16:16:00,27.9,27.2,30.05,SSW,202,0.0,-999.0,97,-99.99,,,0.00,Acu-Link.com,2013-02-16 01:16:00,
2013-02-15 16:31:00,26.8,26.1,30.06,SSW,202,0.0,-999.0,97,-99.99,,,0.00,Acu-Link.com,2013-02-16 01:31:00,
2013-02-15 16:46:00,25.9,24.2,30.06,SW,225,5.8,-999.0,93,-99.99,,,0.00,Acu-Link.com,2013-02-16 01:46:00,
2013-02-15 17:01:00,25.5,24.0,30.08,SW,225,3.2,-999.0,94,-99.99,,,0.00,Acu-Link.com,2013-02-16 02:01:00,
2013-02-15 17:16:00,25.5,24.5,30.09,SSW,202,2.7,-999.0,96,-99.99,,,0.00,Acu-Link.com,2013-02-16 02:16:00,
2013-02-15 17:32:00,25.2,24.5,30.09,SSW,202,2.7,-999.0,97,-99.99,,,0.00,Acu-Link.com,2013-02-16 02:32:00,
2013-02-15 17:47:00,25.0,24.0,30.10,SSW,202,4.7,-999.0,96,-99.99,,,0.00,Acu-Link.com,2013-02-16 02:47:00,
2013-02-15 18:02:00,24.4,22.7,30.10,South,180,3.7,-999.0,93,-99.99,,,0.00,Acu-Link.com,2013-02-16 03:02:00,
2013-02-15 18:18:00,24.4,23.4,30.11,South,180,2.7,-999.0,96,-99.99,,,0.00,Acu-Link.com,2013-02-16 03:18:00,
2013-02-15 18:33:00,24.4,23.4,30.11,SSW,202,3.2,-999.0,96,-99.99,,,0.00,Acu-Link.com,2013-02-16 03:33:00,
2013-02-15 18:48:00,24.4,22.7,30.12,South,180,6.8,-999.0,93,-99.99,,,0.00,Acu-Link.com,2013-02-16 03:48:00,
2013-02-15 19:03:00,23.7,20.4,30.12,South,180,4.2,-999.0,87,-99.99,,,0.00,Acu-Link.com,2013-02-16 04:03:00,
2013-02-15 19:18:00,23.7,19.3,30.13,SSW,202,3.7,-999.0,83,-99.99,,,0.00,Acu-Link.com,2013-02-16 04:18:00,
2013-02-15 19:34:00,23.7,18.5,30.13,South,180,4.7,-999.0,80,-99.99,,,0.00,Acu-Link.com,2013-02-16 04:34:00,
2013-02-15 19:49:00,23.2,19.1,30.13,South,180,3.7,-999.0,84,-99.99,,,0.00,Acu-Link.com,2013-02-16 04:49:00,
2013-02-15 20:04:00,23.4,19.0,30.14,SSW,202,3.7,-999.0,83,-99.99,,,0.00,Acu-Link.com,2013-02-16 05:04:00,
2013-02-15 20:19:00,23.2,19.9,30.14,South,180,2.7,-999.0,87,-99.99,,,0.00,Acu-Link.com,2013-02-16 05:19:00,
2013-02-15 20:34:00,23.2,19.6,30.15,South,180,2.7,-999.0,86,-99.99,,,0.00,Acu-Link.com,2013-02-16 05:34:00,
2013-02-15 20:50:00,23.2,19.6,30.15,South,180,1.7,-999.0,86,-99.99,,,0.00,Acu-Link.com,2013-02-16 05:50:00,
2013-02-15 21:05:00,23.0,19.2,30.15,South,180,0.0,-999.0,85,-99.99,,,0.00,Acu-Link.com,2013-02-16 06:05:00,
2013-02-15 21:20:00,23.0,19.7,30.15,South,180,0.0,-999.0,87,-99.99,,,0.00,Acu-Link.com,2013-02-16 06:20:00,
2013-02-15 21:35:00,23.0,19.4,30.15,South,180,0.0,-999.0,86,-99.99,,,0.00,Acu-Link.com,2013-02-16 06:35:00,
2013-02-15 21:50:00,22.3,20.3,30.17,NE,45,3.2,-999.0,92,-99.99,,,0.00,Acu-Link.com,2013-02-16 06:50:00,
2013-02-15 22:06:00,22.1,20.1,30.16,NNE,22,3.7,-999.0,92,-99.99,,,0.00,Acu-Link.com,2013-02-16 07:06:00,
2013-02-15 22:21:00,22.1,20.4,30.16,NNE,22,3.2,-999.0,93,-99.99,,,0.00,Acu-Link.com,2013-02-16 07:21:00,
2013-02-15 22:36:00,22.1,20.4,30.17,NNE,22,2.7,-999.0,93,-99.99,,,0.00,Acu-Link.com,2013-02-16 07:36:00,
2013-02-15 22:51:00,21.9,20.4,30.18,NNE,22,0.0,-999.0,94,-99.99,,,0.00,Acu-Link.com,2013-02-16 07:51:00,
2013-02-15 23:07:00,21.6,19.9,30.18,South,180,3.2,-999.0,93,-99.99,,,0.00,Acu-Link.com,2013-02-16 08:07:00,
2013-02-15 23:22:00,21.9,17.5,30.19,SSW,202,3.2,-999.0,83,-99.99,,,0.00,Acu-Link.com,2013-02-16 08:22:00,
2013-02-15 23:37:00,21.9,17.0,30.20,SSW,202,0.0,-999.0,81,-99.99,,,0.00,Acu-Link.com,2013-02-16 08:37:00,
2013-02-15 23:52:00,21.9,14.6,30.22,SSW,202,3.2,-999.0,73,-99.99,,,0.00,Acu-Link.com,2013-02-16 08:52:00,